sensor_id;sensor_type;location;lat;lon;timestamp;pressure;altitude;pressure_sealevel;temperature;humidity
9281;BME280;4679;47.966;7.958;2023-01-26T07:35:24;97405.88;;;-0.08;89.63
9281;BME280;4679;47.966;7.958;2023-01-26T07:37:26;97411.09;;;-0.08;89.56
9281;BME280;4679;47.966;7.958;2023-01-26T07:39:28;97408.97;;;-0.04;89.50
9281;BME280;4679;47.966;7.958;2023-01-26T07:41:30;97419.22;;;-0.03;89.64
9281;BME280;4679;47.966;7.958;2023-01-26T07:43:32;97417.44;;;-0.10;89.93
9281;BME280;4679;47.966;7.958;2023-01-26T07:45:35;97415.81;;;-0.11;89.58
9281;BME280;4679;47.966;7.958;2023-01-26T07:47:37;97423.47;;;-0.10;89.45
9281;BME280;4679;47.966;7.958;2023-01-26T07:49:38;97417.28;;;-0.09;89.79
9281;BME280;4679;47.966;7.958;2023-01-26T07:51:41;97417.59;;;-0.04;89.39
9281;BME280;4679;47.966;7.958;2023-01-26T07:53:43;97420.88;;;-0.10;89.56
9281;BME280;4679;47.966;7.958;2023-01-26T07:55:49;97424.47;;;-0.11;89.73
9281;BME280;4679;47.966;7.958;2023-01-26T07:57:50;97424.47;;;-0.11;89.59
9281;BME280;4679;47.966;7.958;2023-01-26T07:59:52;97419.56;;;-0.06;89.74
9281;BME280;4679;47.966;7.958;2023-01-26T08:01:54;97418.41;;;-0.03;89.65
9281;BME280;4679;47.966;7.958;2023-01-26T08:03:56;97415.31;;;-0.07;89.98
9281;BME280;4679;47.966;7.958;2023-01-26T08:05:58;97419.09;;;-0.09;89.70
9281;BME280;4679;47.966;7.958;2023-01-26T08:08:01;97418.41;;;-0.03;89.71
9281;BME280;4679;47.966;7.958;2023-01-26T08:10:04;97417.06;;;0.01;89.92
9281;BME280;4679;47.966;7.958;2023-01-26T08:12:06;97415.81;;;-0.03;89.71
9281;BME280;4679;47.966;7.958;2023-01-26T08:14:07;97418.41;;;-0.03;89.72
9281;BME280;4679;47.966;7.958;2023-01-26T08:16:10;97413.53;;;-0.06;89.75
9281;BME280;4679;47.966;7.958;2023-01-26T08:18:12;97406.53;;;-0.06;90.02
9281;BME280;4679;47.966;7.958;2023-01-26T08:20:13;97409.63;;;-0.02;90.40
9281;BME280;4679;47.966;7.958;2023-01-26T08:22:15;97406.03;;;-0.01;89.69
9281;BME280;4679;47.966;7.958;2023-01-26T08:24:18;97410.06;;;0.02;89.83
9281;BME280;4679;47.966;7.958;2023-01-26T08:26:20;97410.38;;;0.07;89.71
9281;BME280;4679;47.966;7.958;2023-01-26T08:28:22;97409.88;;;0.11;89.65
9281;BME280;4679;47.966;7.958;2023-01-26T08:30:23;97413.13;;;0.13;89.79
9281;BME280;4679;47.966;7.958;2023-01-26T08:32:25;97402.22;;;0.10;89.52
9281;BME280;4679;47.966;7.958;2023-01-26T08:34:27;97409.25;;;0.01;89.77
9281;BME280;4679;47.966;7.958;2023-01-26T08:36:29;97404.03;;;0.01;89.82
9281;BME280;4679;47.966;7.958;2023-01-26T08:38:31;97411.03;;;0.00;89.72
9281;BME280;4679;47.966;7.958;2023-01-26T08:40:34;97398.69;;;-0.06;89.45
9281;BME280;4679;47.966;7.958;2023-01-26T08:42:36;97412.22;;;-0.02;89.83
9281;BME280;4679;47.966;7.958;2023-01-26T08:44:37;97410.25;;;0.00;89.56
9281;BME280;4679;47.966;7.958;2023-01-26T08:46:39;97413.47;;;0.02;89.57
9281;BME280;4679;47.966;7.958;2023-01-26T08:48:41;97414.13;;;0.04;89.61
9281;BME280;4679;47.966;7.958;2023-01-26T08:50:42;97409.72;;;0.05;89.78
9281;BME280;4679;47.966;7.958;2023-01-26T08:52:44;97415.44;;;0.08;89.68
9281;BME280;4679;47.966;7.958;2023-01-26T08:54:46;97415.94;;;0.04;89.85
9281;BME280;4679;47.966;7.958;2023-01-26T08:56:49;97417.13;;;-0.07;89.93
9281;BME280;4679;47.966;7.958;2023-01-26T08:58:50;97416.63;;;-0.11;89.37
9281;BME280;4679;47.966;7.958;2023-01-26T09:00:52;97419.09;;;-0.09;89.97
9281;BME280;4679;47.966;7.958;2023-01-26T09:02:57;97416.31;;;-0.08;89.78
9281;BME280;4679;47.966;7.958;2023-01-26T09:04:59;97419.91;;;-0.09;89.62
9281;BME280;4679;47.966;7.958;2023-01-26T09:07:01;97425.91;;;-0.08;89.83
9281;BME280;4679;47.966;7.958;2023-01-26T09:09:03;97414.69;;;-0.09;89.77
9281;BME280;4679;47.966;7.958;2023-01-26T09:11:05;97419.41;;;-0.04;89.79
9281;BME280;4679;47.966;7.958;2023-01-26T09:13:08;97410.88;;;0.02;89.65
9281;BME280;4679;47.966;7.958;2023-01-26T09:15:10;97409.22;;;0.09;89.60
9281;BME280;4679;47.966;7.958;2023-01-26T09:17:12;97419.78;;;0.16;89.73
9281;BME280;4679;47.966;7.958;2023-01-26T09:19:13;97423.69;;;0.20;89.51
9281;BME280;4679;47.966;7.958;2023-01-26T09:21:15;97413.72;;;0.23;89.69
9281;BME280;4679;47.966;7.958;2023-01-26T09:23:17;97420.69;;;0.31;89.71
9281;BME280;4679;47.966;7.958;2023-01-26T09:25:20;97426.91;;;0.30;89.43
9281;BME280;4679;47.966;7.958;2023-01-26T09:27:21;97422.19;;;0.25;89.68
9281;BME280;4679;47.966;7.958;2023-01-26T09:29:24;97420.41;;;0.26;89.55
9281;BME280;4679;47.966;7.958;2023-01-26T09:31:26;97424.00;;;0.25;89.47
9281;BME280;4679;47.966;7.958;2023-01-26T09:33:27;97431.81;;;0.25;89.78
9281;BME280;4679;47.966;7.958;2023-01-26T09:35:29;97435.78;;;0.13;89.54
9281;BME280;4679;47.966;7.958;2023-01-26T09:37:31;97434.66;;;0.07;89.65
9281;BME280;4679;47.966;7.958;2023-01-26T09:39:33;97432.06;;;0.07;89.83
9281;BME280;4679;47.966;7.958;2023-01-26T09:41:48;97426.81;;;0.15;89.88
9281;BME280;4679;47.966;7.958;2023-01-26T09:43:54;97430.53;;;0.21;89.67
9281;BME280;4679;47.966;7.958;2023-01-26T09:46:08;97438.00;;;0.24;89.32
9281;BME280;4679;47.966;7.958;2023-01-26T09:48:22;97435.06;;;0.27;89.66
9281;BME280;4679;47.966;7.958;2023-01-26T09:50:32;97437.03;;;0.25;89.76
9281;BME280;4679;47.966;7.958;2023-01-26T09:52:38;97437.19;;;0.23;89.43
9281;BME280;4679;47.966;7.958;2023-01-26T09:54:47;97429.03;;;0.26;89.65
9281;BME280;4679;47.966;7.958;2023-01-26T09:56:50;97428.34;;;0.32;89.55
9281;BME280;4679;47.966;7.958;2023-01-26T09:58:54;97425.22;;;0.37;89.89
9281;BME280;4679;47.966;7.958;2023-01-26T10:01:01;97421.28;;;0.41;89.82
9281;BME280;4679;47.966;7.958;2023-01-26T10:03:10;97419.19;;;0.37;89.73
9281;BME280;4679;47.966;7.958;2023-01-26T10:05:17;97424.41;;;0.37;89.58
9281;BME280;4679;47.966;7.958;2023-01-26T10:07:21;97414.28;;;0.42;89.38
9281;BME280;4679;47.966;7.958;2023-01-26T10:09:26;97422.38;;;0.47;89.39
9281;BME280;4679;47.966;7.958;2023-01-26T10:11:32;97419.78;;;0.47;88.97
9281;BME280;4679;47.966;7.958;2023-01-26T10:13:36;97425.34;;;0.44;89.28
9281;BME280;4679;47.966;7.958;2023-01-26T10:15:40;97423.25;;;0.39;89.57
9281;BME280;4679;47.966;7.958;2023-01-26T10:17:44;97419.66;;;0.40;89.64
9281;BME280;4679;47.966;7.958;2023-01-26T10:19:50;97421.28;;;0.41;89.72
9281;BME280;4679;47.966;7.958;2023-01-26T10:21:54;97430.50;;;0.52;89.38
9281;BME280;4679;47.966;7.958;2023-01-26T10:24:00;97422.00;;;0.58;89.57
9281;BME280;4679;47.966;7.958;2023-01-26T10:26:10;97422.28;;;0.63;89.60
9281;BME280;4679;47.966;7.958;2023-01-26T10:28:14;97423.75;;;0.65;89.10
9281;BME280;4679;47.966;7.958;2023-01-26T10:30:17;97416.16;;;0.56;89.27
9281;BME280;4679;47.966;7.958;2023-01-26T10:32:19;97414.19;;;0.58;89.27
9281;BME280;4679;47.966;7.958;2023-01-26T10:34:24;97417.88;;;0.63;89.18
9281;BME280;4679;47.966;7.958;2023-01-26T10:36:29;97416.25;;;0.62;89.21
9281;BME280;4679;47.966;7.958;2023-01-26T10:38:40;97420.31;;;0.65;89.21
9281;BME280;4679;47.966;7.958;2023-01-26T10:40:42;97418.69;;;0.64;89.55
9281;BME280;4679;47.966;7.958;2023-01-26T10:42:53;97419.56;;;0.56;89.28
9281;BME280;4679;47.966;7.958;2023-01-26T10:44:57;97418.69;;;0.64;89.44
9281;BME280;4679;47.966;7.958;2023-01-26T10:47:04;97418.69;;;0.64;89.15
9281;BME280;4679;47.966;7.958;2023-01-26T10:49:14;97416.44;;;0.61;89.18
9281;BME280;4679;47.966;7.958;2023-01-26T10:51:23;97412.59;;;0.49;89.47
9281;BME280;4679;47.966;7.958;2023-01-26T10:53:26;97411.91;;;0.55;89.10
9281;BME280;4679;47.966;7.958;2023-01-26T10:55:30;97415.44;;;0.62;89.31
9281;BME280;4679;47.966;7.958;2023-01-26T10:57:37;97410.63;;;0.51;89.21
9281;BME280;4679;47.966;7.958;2023-01-26T10:59:42;97408.25;;;0.41;89.44
9281;BME280;4679;47.966;7.958;2023-01-26T11:01:52;97396.81;;;0.42;89.28
9281;BME280;4679;47.966;7.958;2023-01-26T11:04:03;97395.78;;;0.51;89.27
9281;BME280;4679;47.966;7.958;2023-01-26T11:06:12;97396.75;;;0.50;89.38
9281;BME280;4679;47.966;7.958;2023-01-26T11:10:50;97389.78;;;0.65;89.25
9281;BME280;4679;47.966;7.958;2023-01-26T11:13:06;97383.72;;;0.73;89.23
9281;BME280;4679;47.966;7.958;2023-01-26T11:15:15;97380.94;;;0.75;88.98
9281;BME280;4679;47.966;7.958;2023-01-26T11:17:21;97388.94;;;0.73;89.08
9281;BME280;4679;47.966;7.958;2023-01-26T11:21:57;97387.81;;;0.67;89.04
9281;BME280;4679;47.966;7.958;2023-01-26T11:24:02;97375.94;;;0.65;88.90
9281;BME280;4679;47.966;7.958;2023-01-26T11:26:22;97378.88;;;0.62;88.90
9281;BME280;4679;47.966;7.958;2023-01-26T11:28:40;97383.59;;;0.66;89.26
9281;BME280;4679;47.966;7.958;2023-01-26T11:30:57;97378.19;;;0.68;89.09
9281;BME280;4679;47.966;7.958;2023-01-26T11:33:08;97375.94;;;0.65;89.28
9281;BME280;4679;47.966;7.958;2023-01-26T11:35:21;97372.81;;;0.69;88.91
9281;BME280;4679;47.966;7.958;2023-01-26T11:37:38;97375.59;;;0.68;88.80
9281;BME280;4679;47.966;7.958;2023-01-26T11:39:48;97374.91;;;0.74;88.95
9281;BME280;4679;47.966;7.958;2023-01-26T11:42:03;97371.56;;;0.80;88.73
9281;BME280;4679;47.966;7.958;2023-01-26T11:44:45;97375.34;;;0.78;89.00
9281;BME280;4679;47.966;7.958;2023-01-26T11:47:00;97371.66;;;0.72;88.90
9281;BME280;4679;47.966;7.958;2023-01-26T11:49:17;97367.06;;;0.74;89.36
9281;BME280;4679;47.966;7.958;2023-01-26T11:51:31;97375.06;;;0.73;88.55
9281;BME280;4679;47.966;7.958;2023-01-26T11:53:48;97367.22;;;0.73;88.80
9281;BME280;4679;47.966;7.958;2023-01-26T11:56:08;97360.72;;;0.68;88.54
9281;BME280;4679;47.966;7.958;2023-01-26T11:58:23;97368.16;;;0.57;88.95
9281;BME280;4679;47.966;7.958;2023-01-26T12:00:36;97361.97;;;0.58;88.95
9281;BME280;4679;47.966;7.958;2023-01-26T12:02:41;97361.78;;;0.59;88.90
9281;BME280;4679;47.966;7.958;2023-01-26T12:04:44;97358.19;;;0.60;88.80
9281;BME280;4679;47.966;7.958;2023-01-26T12:06:49;97358.53;;;0.57;88.47
9281;BME280;4679;47.966;7.958;2023-01-26T12:08:59;97344.13;;;0.61;89.17
9281;BME280;4679;47.966;7.958;2023-01-26T12:11:04;97348.38;;;0.62;88.49
9281;BME280;4679;47.966;7.958;2023-01-26T12:13:29;97337.22;;;0.68;88.81
9281;BME280;4679;47.966;7.958;2023-01-26T12:15:36;97340.00;;;0.67;88.85
9281;BME280;4679;47.966;7.958;2023-01-26T12:17:55;97337.75;;;0.64;88.66
9281;BME280;4679;47.966;7.958;2023-01-26T12:20:04;97340.09;;;0.59;88.87
9281;BME280;4679;47.966;7.958;2023-01-26T12:22:15;97333.59;;;0.55;89.01
9281;BME280;4679;47.966;7.958;2023-01-26T12:24:23;97329.19;;;0.55;89.00
9281;BME280;4679;47.966;7.958;2023-01-26T12:26:32;97327.09;;;0.51;88.35
9281;BME280;4679;47.966;7.958;2023-01-26T12:28:42;97326.56;;;0.55;88.94
9281;BME280;4679;47.966;7.958;2023-01-26T12:30:52;97319.09;;;0.52;88.82
9281;BME280;4679;47.966;7.958;2023-01-26T12:32:56;97323.16;;;0.55;89.03
9281;BME280;4679;47.966;7.958;2023-01-26T12:34:58;97316.31;;;0.54;88.87
9281;BME280;4679;47.966;7.958;2023-01-26T12:37:11;97310.91;;;0.55;88.64
9281;BME280;4679;47.966;7.958;2023-01-26T12:39:23;97312.53;;;0.56;88.74
9281;BME280;4679;47.966;7.958;2023-01-26T12:41:36;97307.03;;;0.51;88.40
9281;BME280;4679;47.966;7.958;2023-01-26T12:43:51;97301.44;;;0.54;88.68
9281;BME280;4679;47.966;7.958;2023-01-26T12:45:57;97306.97;;;0.59;88.96
9281;BME280;4679;47.966;7.958;2023-01-26T12:48:06;97303.44;;;0.52;88.34
9281;BME280;4679;47.966;7.958;2023-01-26T12:50:17;97300.72;;;0.46;88.50
9281;BME280;4679;47.966;7.958;2023-01-26T12:52:24;97300.19;;;0.50;88.87
9281;BME280;4679;47.966;7.958;2023-01-26T12:54:33;97296.13;;;0.48;88.85
9281;BME280;4679;47.966;7.958;2023-01-26T12:56:40;97293.25;;;0.43;88.59
9281;BME280;4679;47.966;7.958;2023-01-26T12:58:47;97297.19;;;0.39;88.47
9281;BME280;4679;47.966;7.958;2023-01-26T13:00:51;97300.78;;;0.38;88.58
9281;BME280;4679;47.966;7.958;2023-01-26T13:02:58;97297.34;;;0.37;88.43
9281;BME280;4679;47.966;7.958;2023-01-26T13:05:01;97301.72;;;0.45;88.72
9281;BME280;4679;47.966;7.958;2023-01-26T13:07:28;97290.56;;;0.51;88.42
9281;BME280;4679;47.966;7.958;2023-01-26T13:09:30;97296.59;;;0.51;88.69
9281;BME280;4679;47.966;7.958;2023-01-26T13:11:46;97299.09;;;0.45;88.69
9281;BME280;4679;47.966;7.958;2023-01-26T13:13:54;97300.72;;;0.46;88.78
9281;BME280;4679;47.966;7.958;2023-01-26T13:16:31;97297.84;;;0.55;88.57
9281;BME280;4679;47.966;7.958;2023-01-26T13:18:47;97299.72;;;0.47;88.38
9281;BME280;4679;47.966;7.958;2023-01-26T13:20:49;97301.97;;;0.50;88.61
9281;BME280;4679;47.966;7.958;2023-01-26T13:22:51;97303.94;;;0.48;88.68
9281;BME280;4679;47.966;7.958;2023-01-26T13:24:55;97298.47;;;0.43;88.42
9281;BME280;4679;47.966;7.958;2023-01-26T13:26:58;97300.44;;;0.41;88.49
9281;BME280;4679;47.966;7.958;2023-01-26T13:29:29;97297.88;;;0.32;88.34
9281;BME280;4679;47.966;7.958;2023-01-26T13:31:35;97293.47;;;0.33;88.67
9281;BME280;4679;47.966;7.958;2023-01-26T13:33:37;97300.78;;;0.38;88.43
9281;BME280;4679;47.966;7.958;2023-01-26T13:35:40;97289.88;;;0.34;88.38
9281;BME280;4679;47.966;7.958;2023-01-26T13:37:47;97295.78;;;0.28;88.57
9281;BME280;4679;47.966;7.958;2023-01-26T13:39:54;97300.53;;;0.24;88.34
9281;BME280;4679;47.966;7.958;2023-01-26T13:41:57;97295.66;;;0.21;88.26
9281;BME280;4679;47.966;7.958;2023-01-26T13:44:05;97307.84;;;0.29;88.37
9281;BME280;4679;47.966;7.958;2023-01-26T13:46:18;97303.31;;;0.23;88.47
9281;BME280;4679;47.966;7.958;2023-01-26T13:48:31;97301.34;;;0.25;88.50
9281;BME280;4679;47.966;7.958;2023-01-26T13:50:36;97298.09;;;0.23;88.36
9281;BME280;4679;47.966;7.958;2023-01-26T13:52:41;97305.28;;;0.21;88.32
9281;BME280;4679;47.966;7.958;2023-01-26T13:54:43;97302.97;;;0.26;88.21
9281;BME280;4679;47.966;7.958;2023-01-26T13:56:59;97307.78;;;0.37;88.70
9281;BME280;4679;47.966;7.958;2023-01-26T13:59:03;97302.22;;;0.40;88.20
9281;BME280;4679;47.966;7.958;2023-01-26T14:01:11;97305.00;;;0.39;88.13
9281;BME280;4679;47.966;7.958;2023-01-26T14:03:21;97308.78;;;0.36;88.45
9281;BME280;4679;47.966;7.958;2023-01-26T14:05:23;97303.22;;;0.39;88.27
9281;BME280;4679;47.966;7.958;2023-01-26T14:07:27;97304.50;;;0.43;88.21
9281;BME280;4679;47.966;7.958;2023-01-26T14:09:32;97313.47;;;0.41;88.23
9281;BME280;4679;47.966;7.958;2023-01-26T14:11:35;97313.00;;;0.37;87.94
9281;BME280;4679;47.966;7.958;2023-01-26T14:13:37;97312.19;;;0.37;88.37
9281;BME280;4679;47.966;7.958;2023-01-26T14:15:39;97314.16;;;0.34;88.05
9281;BME280;4679;47.966;7.958;2023-01-26T14:17:47;97322.00;;;0.34;88.16
9281;BME280;4679;47.966;7.958;2023-01-26T14:19:50;97320.53;;;0.32;87.81
9281;BME280;4679;47.966;7.958;2023-01-26T14:21:53;97317.13;;;0.31;88.31
9281;BME280;4679;47.966;7.958;2023-01-26T14:23:55;97308.72;;;0.21;88.03
9281;BME280;4679;47.966;7.958;2023-01-26T14:25:59;97315.72;;;0.21;88.14
9281;BME280;4679;47.966;7.958;2023-01-26T14:28:02;97314.06;;;0.28;88.19
9281;BME280;4679;47.966;7.958;2023-01-26T14:30:19;97310.34;;;0.22;88.06
9281;BME280;4679;47.966;7.958;2023-01-26T14:32:22;97312.53;;;0.11;87.54
9281;BME280;4679;47.966;7.958;2023-01-26T14:34:26;97314.50;;;0.09;88.14
9281;BME280;4679;47.966;7.958;2023-01-26T14:36:30;97313.63;;;0.16;87.98
9281;BME280;4679;47.966;7.958;2023-01-26T14:38:40;97319.97;;;0.22;88.10
9281;BME280;4679;47.966;7.958;2023-01-26T14:40:43;97310.81;;;0.26;88.08
9281;BME280;4679;47.966;7.958;2023-01-26T14:42:46;97320.91;;;0.29;87.99
9281;BME280;4679;47.966;7.958;2023-01-26T14:44:48;97318.97;;;0.23;87.88
9281;BME280;4679;47.966;7.958;2023-01-26T14:46:54;97322.91;;;0.19;88.15
9281;BME280;4679;47.966;7.958;2023-01-26T14:49:00;97326.16;;;0.21;87.89
9281;BME280;4679;47.966;7.958;2023-01-26T14:51:03;97329.47;;;0.15;87.77
9281;BME280;4679;47.966;7.958;2023-01-26T14:53:16;97326.22;;;0.13;88.09
9281;BME280;4679;47.966;7.958;2023-01-26T14:55:21;97334.31;;;0.18;88.16
9281;BME280;4679;47.966;7.958;2023-01-26T14:57:26;97333.41;;;0.11;87.48
9281;BME280;4679;47.966;7.958;2023-01-26T14:59:34;97340.00;;;-0.02;87.69
9281;BME280;4679;47.966;7.958;2023-01-26T15:01:37;97337.09;;;-0.07;87.90
9281;BME280;4679;47.966;7.958;2023-01-26T15:03:39;97332.38;;;-0.11;87.57
9281;BME280;4679;47.966;7.958;2023-01-26T15:05:41;97333.66;;;-0.07;87.96
9281;BME280;4679;47.966;7.958;2023-01-26T15:07:44;97331.38;;;-0.02;87.70
9281;BME280;4679;47.966;7.958;2023-01-26T15:09:52;97335.72;;;0.06;87.71
9281;BME280;4679;47.966;7.958;2023-01-26T15:11:56;97335.06;;;0.04;87.43
9281;BME280;4679;47.966;7.958;2023-01-26T15:14:35;97336.69;;;0.05;87.68
9281;BME280;4679;47.966;7.958;2023-01-26T15:16:50;97339.13;;;0.06;87.67
9281;BME280;4679;47.966;7.958;2023-01-26T15:18:59;97341.25;;;0.11;87.61
9281;BME280;4679;47.966;7.958;2023-01-26T15:21:11;97335.84;;;0.12;87.68
9281;BME280;4679;47.966;7.958;2023-01-26T15:23:25;97336.03;;;0.11;87.45
9281;BME280;4679;47.966;7.958;2023-01-26T15:25:30;97337.00;;;0.10;87.57
9281;BME280;4679;47.966;7.958;2023-01-26T15:27:34;97338.13;;;0.15;87.50
9281;BME280;4679;47.966;7.958;2023-01-26T15:29:37;97336.66;;;0.13;87.48
9281;BME280;4679;47.966;7.958;2023-01-26T15:31:40;97336.84;;;0.11;87.45
9281;BME280;4679;47.966;7.958;2023-01-26T15:33:47;97334.22;;;0.11;87.37
9281;BME280;4679;47.966;7.958;2023-01-26T15:35:56;97339.59;;;0.10;87.22
9281;BME280;4679;47.966;7.958;2023-01-26T15:38:00;97342.69;;;0.13;87.58
9281;BME280;4679;47.966;7.958;2023-01-26T15:40:02;97344.94;;;0.16;87.41
9281;BME280;4679;47.966;7.958;2023-01-26T15:42:12;97342.69;;;0.13;87.70
9281;BME280;4679;47.966;7.958;2023-01-26T15:44:17;97341.50;;;0.16;87.60
9281;BME280;4679;47.966;7.958;2023-01-26T15:46:19;97341.00;;;0.20;87.38
9281;BME280;4679;47.966;7.958;2023-01-26T15:48:21;97340.84;;;0.22;87.54
9281;BME280;4679;47.966;7.958;2023-01-26T15:50:23;97345.94;;;0.15;87.47
9281;BME280;4679;47.966;7.958;2023-01-26T15:52:27;97343.69;;;0.12;87.18
9281;BME280;4679;47.966;7.958;2023-01-26T15:54:29;97340.53;;;0.17;86.98
9281;BME280;4679;47.966;7.958;2023-01-26T15:56:31;97343.34;;;0.15;87.25
9281;BME280;4679;47.966;7.958;2023-01-26T15:58:35;97338.97;;;0.08;87.39
9281;BME280;4679;47.966;7.958;2023-01-26T16:00:36;97337.66;;;0.12;87.37
9281;BME280;4679;47.966;7.958;2023-01-26T16:02:39;97345.31;;;0.13;87.43
9281;BME280;4679;47.966;7.958;2023-01-26T16:04:41;97338.81;;;0.09;87.30
9281;BME280;4679;47.966;7.958;2023-01-26T16:06:42;97339.31;;;0.05;87.34
9281;BME280;4679;47.966;7.958;2023-01-26T16:08:44;97345.84;;;0.00;87.42
9281;BME280;4679;47.966;7.958;2023-01-26T16:10:46;97340.81;;;-0.01;87.50
9281;BME280;4679;47.966;7.958;2023-01-26T16:12:48;97342.94;;;-0.05;87.23
9281;BME280;4679;47.966;7.958;2023-01-26T16:14:51;97350.13;;;-0.07;87.32
9281;BME280;4679;47.966;7.958;2023-01-26T16:16:53;97344.41;;;-0.02;87.25
9281;BME280;4679;47.966;7.958;2023-01-26T16:18:55;97352.50;;;0.03;87.46
9281;BME280;4679;47.966;7.958;2023-01-26T16:20:57;97345.16;;;0.07;87.26
9281;BME280;4679;47.966;7.958;2023-01-26T16:22:59;97351.69;;;0.03;87.07
9281;BME280;4679;47.966;7.958;2023-01-26T16:25:01;97351.25;;;-0.01;87.25
9281;BME280;4679;47.966;7.958;2023-01-26T16:27:02;97357.56;;;0.05;87.23
9281;BME280;4679;47.966;7.958;2023-01-26T16:29:04;97360.81;;;0.07;87.36
9281;BME280;4679;47.966;7.958;2023-01-26T16:31:13;97354.78;;;0.06;87.64
9281;BME280;4679;47.966;7.958;2023-01-26T16:33:16;97351.41;;;-0.03;86.97
9281;BME280;4679;47.966;7.958;2023-01-26T16:35:21;97355.84;;;-0.11;87.25
9281;BME280;4679;47.966;7.958;2023-01-26T16:37:23;97348.03;;;-0.11;87.24
9281;BME280;4679;47.966;7.958;2023-01-26T16:39:25;97355.03;;;-0.12;87.12
9281;BME280;4679;47.966;7.958;2023-01-26T16:41:30;97355.69;;;-0.10;87.29
9281;BME280;4679;47.966;7.958;2023-01-26T16:43:32;97352.44;;;-0.12;87.26
9281;BME280;4679;47.966;7.958;2023-01-26T16:45:33;97355.56;;;-0.16;87.09
9281;BME280;4679;47.966;7.958;2023-01-26T16:47:36;97363.38;;;-0.16;87.38
9281;BME280;4679;47.966;7.958;2023-01-26T16:49:38;97359.16;;;-0.17;87.19
9281;BME280;4679;47.966;7.958;2023-01-26T16:51:40;97356.38;;;-0.16;87.06
9281;BME280;4679;47.966;7.958;2023-01-26T16:53:43;97357.16;;;-0.15;86.95
9281;BME280;4679;47.966;7.958;2023-01-26T16:55:45;97362.38;;;-0.15;87.28
9281;BME280;4679;47.966;7.958;2023-01-26T16:57:46;97359.66;;;-0.22;87.06
9281;BME280;4679;47.966;7.958;2023-01-26T16:59:49;97360.00;;;-0.25;87.15
9281;BME280;4679;47.966;7.958;2023-01-26T17:01:50;97361.94;;;-0.27;86.98
9281;BME280;4679;47.966;7.958;2023-01-26T17:03:54;97358.34;;;-0.26;87.16
9281;BME280;4679;47.966;7.958;2023-01-26T17:05:56;97370.75;;;-0.28;87.44
9281;BME280;4679;47.966;7.958;2023-01-26T17:07:57;97362.59;;;-0.25;87.21
9281;BME280;4679;47.966;7.958;2023-01-26T17:09:59;97362.59;;;-0.25;87.10
9281;BME280;4679;47.966;7.958;2023-01-26T17:12:01;97362.94;;;-0.28;87.11
9281;BME280;4679;47.966;7.958;2023-01-26T17:14:02;97361.66;;;-0.32;87.11
9281;BME280;4679;47.966;7.958;2023-01-26T17:16:08;97359.22;;;-0.33;87.17
9281;BME280;4679;47.966;7.958;2023-01-26T17:18:11;97363.91;;;-0.29;87.11
9281;BME280;4679;47.966;7.958;2023-01-26T17:20:15;97364.28;;;-0.32;87.00
9281;BME280;4679;47.966;7.958;2023-01-26T17:22:16;97360.69;;;-0.31;87.09
9281;BME280;4679;47.966;7.958;2023-01-26T17:24:18;97360.03;;;-0.33;86.96
9281;BME280;4679;47.966;7.958;2023-01-26T17:26:21;97367.69;;;-0.31;87.13
9281;BME280;4679;47.966;7.958;2023-01-26T17:28:22;97364.44;;;-0.33;87.11
9281;BME280;4679;47.966;7.958;2023-01-26T17:30:24;97366.88;;;-0.32;87.11
9281;BME280;4679;47.966;7.958;2023-01-26T17:32:26;97364.88;;;-0.30;87.17
9281;BME280;4679;47.966;7.958;2023-01-26T17:34:28;97368.50;;;-0.31;87.35
9281;BME280;4679;47.966;7.958;2023-01-26T17:36:31;97362.13;;;-0.28;87.10
9281;BME280;4679;47.966;7.958;2023-01-26T17:38:32;97360.81;;;-0.24;86.84
9281;BME280;4679;47.966;7.958;2023-01-26T17:40:34;97365.38;;;-0.26;87.01
9281;BME280;4679;47.966;7.958;2023-01-26T17:42:36;97365.53;;;-0.28;86.90
9281;BME280;4679;47.966;7.958;2023-01-26T17:44:38;97367.69;;;-0.31;87.04
9281;BME280;4679;47.966;7.958;2023-01-26T17:46:40;97366.06;;;-0.32;87.02
9281;BME280;4679;47.966;7.958;2023-01-26T17:48:42;97373.06;;;-0.33;86.97
9281;BME280;4679;47.966;7.958;2023-01-26T17:50:46;97374.34;;;-0.29;87.12
9281;BME280;4679;47.966;7.958;2023-01-26T17:52:49;97374.34;;;-0.29;86.96
9281;BME280;4679;47.966;7.958;2023-01-26T17:54:51;97371.41;;;-0.26;87.09
9281;BME280;4679;47.966;7.958;2023-01-26T17:56:52;97373.03;;;-0.25;86.84
9281;BME280;4679;47.966;7.958;2023-01-26T17:58:55;97374.66;;;-0.24;87.44
9281;BME280;4679;47.966;7.958;2023-01-26T18:00:57;97366.34;;;-0.27;86.93
9281;BME280;4679;47.966;7.958;2023-01-26T18:02:59;97372.72;;;-0.30;86.96
9281;BME280;4679;47.966;7.958;2023-01-26T18:05:00;97370.75;;;-0.28;86.79
9281;BME280;4679;47.966;7.958;2023-01-26T18:07:02;97362.13;;;-0.28;87.18
9281;BME280;4679;47.966;7.958;2023-01-26T18:09:05;97369.44;;;-0.24;87.03
9281;BME280;4679;47.966;7.958;2023-01-26T18:11:09;97363.72;;;-0.19;86.85
9281;BME280;4679;47.966;7.958;2023-01-26T18:13:11;97371.72;;;-0.29;86.55
9281;BME280;4679;47.966;7.958;2023-01-26T18:15:13;97372.72;;;-0.30;86.92
9281;BME280;4679;47.966;7.958;2023-01-26T18:17:15;97371.91;;;-0.30;87.08
9281;BME280;4679;47.966;7.958;2023-01-26T18:19:16;97379.53;;;-0.29;86.82
9281;BME280;4679;47.966;7.958;2023-01-26T18:21:20;97381.38;;;-0.38;86.86
9281;BME280;4679;47.966;7.958;2023-01-26T18:23:23;97380.06;;;-0.33;86.72
9281;BME280;4679;47.966;7.958;2023-01-26T18:25:26;97372.75;;;-0.38;86.88
9281;BME280;4679;47.966;7.958;2023-01-26T18:27:28;97364.75;;;-0.37;86.92
9281;BME280;4679;47.966;7.958;2023-01-26T18:29:30;97362.97;;;-0.36;86.73
9281;BME280;4679;47.966;7.958;2023-01-26T18:31:35;97361.03;;;-0.42;86.81
9281;BME280;4679;47.966;7.958;2023-01-26T18:33:37;97369.66;;;-0.42;86.64
9281;BME280;4679;47.966;7.958;2023-01-26T18:35:38;97361.50;;;-0.39;87.05
9281;BME280;4679;47.966;7.958;2023-01-26T18:37:40;97362.81;;;-0.43;87.02
9281;BME280;4679;47.966;7.958;2023-01-26T18:39:42;97361.03;;;-0.42;86.99
9281;BME280;4679;47.966;7.958;2023-01-26T18:41:45;97359.06;;;-0.40;87.02
9281;BME280;4679;47.966;7.958;2023-01-26T18:43:49;97360.69;;;-0.39;86.92
9281;BME280;4679;47.966;7.958;2023-01-26T18:45:51;97364.63;;;-0.43;87.00
9281;BME280;4679;47.966;7.958;2023-01-26T18:47:52;97361.69;;;-0.40;87.29
9281;BME280;4679;47.966;7.958;2023-01-26T18:49:54;97363.00;;;-0.44;87.27
9281;BME280;4679;47.966;7.958;2023-01-26T18:51:56;97364.44;;;-0.42;87.13
9281;BME280;4679;47.966;7.958;2023-01-26T18:53:58;97363.63;;;-0.42;87.10
9281;BME280;4679;47.966;7.958;2023-01-26T18:56:01;97360.38;;;-0.36;87.01
9281;BME280;4679;47.966;7.958;2023-01-26T18:58:05;97372.78;;;-0.46;87.06
9281;BME280;4679;47.966;7.958;2023-01-26T19:00:08;97372.16;;;-0.48;87.02
9281;BME280;4679;47.966;7.958;2023-01-26T19:02:11;97371.97;;;-0.47;86.93
9281;BME280;4679;47.966;7.958;2023-01-26T19:04:12;97373.78;;;-0.47;86.93
9281;BME280;4679;47.966;7.958;2023-01-26T19:06:15;97386.81;;;-0.47;86.99
9281;BME280;4679;47.966;7.958;2023-01-26T19:08:19;97378.97;;;-0.47;87.01